Time;durP1;ratioP1;P1;durP2;ratioP2;P2;SDS_P1;SDS_P2;PMS_P1;PMS_P2;Temp;Humidity;BMP_temperature;BMP_pressure;BME280_temperature;BME280_humidity;BME280_pressure;Samples;Min_cycle;Max_cycle;Signal;HPM_P1;HPM_P2
2021/01/20 06:02:47;;;;;;;3.73;2.40;;;5.60;97.30;;;;;;4952066;23;20496;-75
2021/01/20 06:05:14;;;;;;;3.20;2.50;;;5.70;97.30;;;;;;4918002;29;20484;-73
2021/01/20 06:07:41;;;;;;;2.93;2.00;;;5.70;97.30;;;;;;4918250;29;20422;-73
2021/01/20 06:10:08;;;;;;;3.80;2.43;;;5.70;97.30;;;;;;4919452;29;20911;-74
2021/01/20 06:12:33;;;;;;;2.93;2.40;;;5.70;97.30;;;;;;4899933;29;20461;-74
2021/01/20 06:14:59;;;;;;;3.40;2.60;;;5.70;97.30;;;;;;4900766;29;20418;-74
2021/01/20 06:17:41;;;;;;;3.50;2.30;;;5.80;97.30;;;;;;4899398;29;20189;-74
2021/01/20 06:20:08;;;;;;;2.87;2.40;;;5.70;97.30;;;;;;4899264;29;20189;-73
2021/01/20 06:22:39;;;;;;;4.00;2.60;;;5.80;97.30;;;;;;4897898;29;20485;-74
2021/01/20 06:25:22;;;;;;;2.40;2.13;;;5.80;97.30;;;;;;4900676;29;20422;-73
2021/01/20 06:27:55;;;;;;;3.80;2.70;;;5.80;97.10;;;;;;4899259;29;20453;-74
2021/01/20 06:30:36;;;;;;;4.37;2.50;;;5.80;97.10;;;;;;4900185;29;20834;-73
2021/01/20 06:33:07;;;;;;;3.00;2.60;;;5.80;97.30;;;;;;4899319;29;20434;-74
2021/01/20 06:35:44;;;;;;;4.00;2.40;;;5.90;97.00;;;;;;4899445;29;20425;-72
2021/01/20 06:38:28;;;;;;;2.57;2.30;;;5.90;96.80;;;;;;4900410;29;20835;-73
2021/01/20 06:40:58;;;;;;;2.80;2.43;;;6.00;96.60;;;;;;4900004;29;20444;-73
2021/01/20 06:43:41;;;;;;;2.97;2.40;;;6.00;96.50;;;;;;4899126;29;20434;-74
2021/01/20 06:46:14;;;;;;;4.70;2.60;;;6.00;96.80;;;;;;4900101;29;20421;-73
2021/01/20 06:48:55;;;;;;;4.70;2.40;;;5.90;97.00;;;;;;4898763;29;20460;-73
2021/01/20 06:51:22;;;;;;;3.57;2.50;;;5.90;97.00;;;;;;4898438;29;20449;-73
2021/01/20 06:54:10;;;;;;;3.80;2.70;;;5.90;96.80;;;;;;4899309;29;20436;-73
2021/01/20 06:56:38;;;;;;;5.07;2.80;;;6.00;96.60;;;;;;4898645;29;20417;-74
2021/01/20 06:59:22;;;;;;;4.50;2.23;;;6.00;96.90;;;;;;4899822;29;20512;-73
2021/01/20 07:02:03;;;;;;;3.57;2.23;;;5.90;96.90;;;;;;4898179;29;20465;-74
2021/01/20 07:04:40;;;;;;;3.40;2.50;;;5.90;97.00;;;;;;4898869;29;20428;-73
2021/01/20 07:07:06;;;;;;;4.10;2.60;;;5.90;96.90;;;;;;4899640;29;20421;-74
2021/01/20 07:09:58;;;;;;;5.67;2.70;;;6.00;96.50;;;;;;4899711;29;20461;-74
2021/01/20 07:12:25;;;;;;;4.33;2.70;;;6.00;96.50;;;;;;4893028;29;20448;-72
2021/01/20 07:14:55;;;;;;;3.20;2.60;;;6.00;96.40;;;;;;4899727;29;21017;-72
2021/01/20 07:17:21;;;;;;;3.50;2.50;;;6.00;96.60;;;;;;4898339;29;20504;-72
2021/01/20 07:19:48;;;;;;;3.77;2.27;;;6.00;96.50;;;;;;4899408;29;20417;-73
2021/01/20 07:22:15;;;;;;;3.20;2.80;;;6.00;96.60;;;;;;4898331;29;20452;-74
2021/01/20 07:24:41;;;;;;;2.67;2.43;;;6.00;96.30;;;;;;4898282;29;20426;-73
2021/01/20 07:27:09;;;;;;;3.27;2.33;;;6.00;96.20;;;;;;4899636;29;20420;-74
2021/01/20 07:29:35;;;;;;;3.63;2.30;;;6.00;96.40;;;;;;4898281;29;20201;-73
2021/01/20 07:32:02;;;;;;;4.93;2.80;;;6.00;96.40;;;;;;4897865;29;20577;-74
2021/01/20 07:34:42;;;;;;;4.73;2.87;;;6.00;96.40;;;;;;4897767;29;20472;-74
2021/01/20 07:37:16;;;;;;;4.90;3.10;;;6.10;96.10;;;;;;4898034;29;20417;-74
2021/01/20 07:39:44;;;;;;;2.67;2.50;;;6.10;95.80;;;;;;4898330;29;20521;-74
2021/01/20 07:42:10;;;;;;;3.80;2.40;;;6.10;95.90;;;;;;4898966;29;20444;-72
2021/01/20 07:44:45;;;;;;;3.70;2.73;;;6.10;96.00;;;;;;4897993;29;20414;-74
2021/01/20 07:47:11;;;;;;;4.97;2.73;;;6.20;95.80;;;;;;4897922;29;20427;-74
2021/01/20 07:49:37;;;;;;;3.47;2.60;;;6.20;95.70;;;;;;4898944;29;20823;-74
2021/01/20 07:52:08;;;;;;;4.43;2.80;;;6.20;95.80;;;;;;4897613;29;20203;-74
2021/01/20 07:54:38;;;;;;;6.43;2.63;;;6.20;95.40;;;;;;4897850;29;20847;-73
2021/01/20 07:57:09;;;;;;;5.23;2.50;;;6.30;95.20;;;;;;4898916;29;20525;-74
2021/01/20 07:59:35;;;;;;;6.40;3.20;;;6.30;95.30;;;;;;4897437;29;20437;-73
2021/01/20 08:02:15;;;;;;;5.20;2.73;;;6.30;95.30;;;;;;4898369;29;20455;-74
2021/01/20 08:04:41;;;;;;;5.40;2.80;;;6.30;95.10;;;;;;4897605;29;20425;-74
2021/01/20 08:07:08;;;;;;;4.10;2.47;;;6.40;95.00;;;;;;4897593;29;20425;-72
2021/01/20 08:09:35;;;;;;;3.23;2.43;;;6.30;95.10;;;;;;4898683;29;20464;-74
2021/01/20 08:12:06;;;;;;;4.27;2.90;;;6.40;95.00;;;;;;4898180;29;20465;-74
2021/01/20 08:14:34;;;;;;;3.90;2.50;;;6.40;95.00;;;;;;4898435;29;20457;-74
2021/01/20 08:17:01;;;;;;;4.63;2.70;;;6.40;94.70;;;;;;4898430;29;20420;-74
2021/01/20 08:19:27;;;;;;;3.60;2.80;;;6.40;94.70;;;;;;4897792;29;20631;-74
2021/01/20 08:21:53;;;;;;;5.17;2.70;;;6.40;94.60;;;;;;4897263;29;20970;-74
2021/01/20 08:24:23;;;;;;;3.37;2.90;;;6.50;94.40;;;;;;4897597;29;20422;-74
2021/01/20 08:26:59;;;;;;;6.20;3.20;;;6.50;94.20;;;;;;4897098;29;20425;-74
2021/01/20 08:29:28;;;;;;;4.60;2.80;;;6.60;94.20;;;;;;4897089;29;20515;-74
2021/01/20 08:32:10;;;;;;;3.57;2.53;;;6.60;94.20;;;;;;4898341;29;20425;-74
2021/01/20 08:34:37;;;;;;;4.93;3.10;;;6.60;94.10;;;;;;4898322;29;20915;-73
2021/01/20 08:37:05;;;;;;;4.60;2.57;;;6.60;94.00;;;;;;4898101;29;20410;-73
2021/01/20 08:39:36;;;;;;;4.93;2.47;;;6.70;93.30;;;;;;4898690;29;20413;-73
2021/01/20 08:42:17;;;;;;;5.87;3.30;;;6.80;93.30;;;;;;4898003;29;20577;-74
2021/01/20 08:45:09;;;;;;;4.40;2.40;;;6.80;93.20;;;;;;4898338;29;20805;-74
2021/01/20 08:47:48;;;;;;;5.73;2.70;;;6.80;93.50;;;;;;4896357;29;20414;-74
2021/01/20 08:50:44;;;;;;;5.83;2.50;;;6.90;93.10;;;;;;4896832;29;20485;-74
2021/01/20 08:53:12;;;;;;;4.60;2.63;;;7.00;93.10;;;;;;4894669;29;20418;-74
2021/01/20 08:55:59;;;;;;;2.87;2.20;;;7.10;92.70;;;;;;4896984;29;20978;-73
2021/01/20 08:58:34;;;;;;;3.50;2.50;;;7.10;92.70;;;;;;4896602;29;20426;-73
2021/01/20 09:01:16;;;;;;;4.70;2.30;;;7.20;92.30;;;;;;4897689;29;20488;-73
2021/01/20 09:03:53;;;;;;;5.30;2.73;;;7.30;92.50;;;;;;4896633;29;20457;-73
2021/01/20 09:06:19;;;;;;;4.23;2.43;;;7.40;92.40;;;;;;4896876;29;20463;-74
2021/01/20 09:08:45;;;;;;;4.17;2.70;;;7.40;92.00;;;;;;4897849;29;20488;-73
2021/01/20 09:11:10;;;;;;;4.43;2.70;;;7.50;91.80;;;;;;4897657;29;20193;-73
2021/01/20 09:13:40;;;;;;;2.53;2.00;;;7.50;91.80;;;;;;4896712;29;20191;-72
2021/01/20 09:16:09;;;;;;;3.10;2.47;;;7.50;91.90;;;;;;4897135;29;20181;-72
2021/01/20 09:18:38;;;;;;;3.60;2.47;;;7.50;91.70;;;;;;4897160;29;20429;-71
2021/01/20 09:21:04;;;;;;;4.13;2.83;;;7.50;91.90;;;;;;4897779;29;20448;-74
2021/01/20 09:23:31;;;;;;;4.33;2.30;;;7.50;91.90;;;;;;4896675;29;20428;-73
2021/01/20 09:25:58;;;;;;;5.20;2.77;;;7.50;91.80;;;;;;4897929;29;20421;-73
2021/01/20 09:28:24;;;;;;;3.40;2.43;;;7.50;92.40;;;;;;4897730;29;20468;-73
2021/01/20 09:30:50;;;;;;;3.47;2.40;;;7.60;92.30;;;;;;4896189;29;20449;-73
2021/01/20 09:33:16;;;;;;;4.23;2.60;;;7.50;92.30;;;;;;4898098;29;20229;-73
2021/01/20 09:35:44;;;;;;;4.60;2.60;;;7.50;92.80;;;;;;4896931;29;20177;-73
2021/01/20 09:38:10;;;;;;;7.10;2.80;;;7.50;93.00;;;;;;4897672;29;20426;-73
2021/01/20 09:40:36;;;;;;;3.00;2.73;;;7.50;92.80;;;;;;4897758;29;20436;-73
2021/01/20 09:43:02;;;;;;;2.07;1.97;;;7.50;92.70;;;;;;4897795;29;20422;-73
2021/01/20 09:45:29;;;;;;;4.47;2.67;;;7.50;92.70;;;;;;4896512;29;20425;-73
2021/01/20 09:48:02;;;;;;;4.13;2.60;;;7.50;92.80;;;;;;4897384;29;20433;-72
2021/01/20 09:50:32;;;;;;;4.80;2.87;;;7.50;92.90;;;;;;4896396;29;20421;-73
2021/01/20 09:52:59;;;;;;;2.37;1.90;;;7.50;92.90;;;;;;4897464;29;20425;-74
2021/01/20 09:55:25;;;;;;;3.77;2.40;;;7.50;93.10;;;;;;4897732;29;20945;-73
2021/01/20 09:57:51;;;;;;;6.50;2.67;;;7.40;93.50;;;;;;4899355;29;20417;-74
2021/01/20 10:00:17;;;;;;;3.03;2.43;;;7.40;93.70;;;;;;4900827;29;20846;-73
2021/01/20 10:02:43;;;;;;;6.03;2.50;;;7.30;93.30;;;;;;4901902;29;20284;-73
2021/01/20 10:05:11;;;;;;;2.60;2.27;;;7.30;93.40;;;;;;4899959;29;20425;-73
2021/01/20 10:07:37;;;;;;;7.20;2.70;;;7.40;93.30;;;;;;4901184;29;20196;-73
2021/01/20 10:10:09;;;;;;;4.03;2.60;;;7.40;93.40;;;;;;4899454;29;20471;-73
2021/01/20 10:12:35;;;;;;;4.87;2.57;;;7.40;93.40;;;;;;4901295;29;20539;-73
2021/01/20 10:15:00;;;;;;;4.73;3.03;;;7.50;93.00;;;;;;4899598;29;20923;-73
2021/01/20 10:17:26;;;;;;;7.53;2.83;;;7.50;93.10;;;;;;4900854;29;20414;-73
2021/01/20 10:19:52;;;;;;;3.20;2.17;;;7.60;93.30;;;;;;4899358;29;20181;-73
2021/01/20 10:22:18;;;;;;;2.90;2.37;;;7.60;92.90;;;;;;4900624;29;20583;-73
2021/01/20 10:24:43;;;;;;;3.17;2.70;;;7.60;92.80;;;;;;4899447;29;20308;-74
2021/01/20 10:27:09;;;;;;;5.30;3.10;;;7.60;92.60;;;;;;4900435;29;20273;-73
2021/01/20 10:29:35;;;;;;;3.40;2.07;;;7.70;92.40;;;;;;4899120;29;20213;-72
2021/01/20 10:32:01;;;;;;;4.07;2.70;;;7.70;92.30;;;;;;4899245;29;20713;-72
2021/01/20 10:34:29;;;;;;;3.97;2.30;;;7.70;92.10;;;;;;4899137;29;20196;-73
2021/01/20 10:36:55;;;;;;;2.47;2.17;;;7.70;91.50;;;;;;4899387;29;20433;-73
2021/01/20 10:39:22;;;;;;;2.73;1.90;;;7.70;91.60;;;;;;4899086;29;20528;-73
2021/01/20 10:41:48;;;;;;;5.40;2.40;;;7.80;91.10;;;;;;4898951;29;20559;-73
2021/01/20 10:44:14;;;;;;;3.13;2.33;;;7.80;91.00;;;;;;4900195;29;20426;-73
2021/01/20 10:46:39;;;;;;;2.60;2.00;;;7.80;90.90;;;;;;4899064;29;20433;-73
2021/01/20 10:49:05;;;;;;;3.30;2.60;;;7.80;90.90;;;;;;4898739;29;20726;-73
2021/01/20 10:51:34;;;;;;;5.30;2.20;;;7.80;90.80;;;;;;4898724;29;20556;-73
2021/01/20 10:54:04;;;;;;;2.33;2.13;;;7.90;90.40;;;;;;4898801;29;20241;-73
2021/01/20 10:56:30;;;;;;;4.00;2.30;;;7.90;90.20;;;;;;4898870;29;20512;-73
2021/01/20 10:58:56;;;;;;;1.77;1.70;;;7.90;90.60;;;;;;4899727;29;20548;-73
2021/01/20 11:01:22;;;;;;;4.13;2.70;;;7.90;90.00;;;;;;4898248;29;20560;-73
2021/01/20 11:03:48;;;;;;;2.90;2.27;;;8.00;89.60;;;;;;4898589;29;20667;-73
2021/01/20 11:06:14;;;;;;;6.90;2.97;;;8.00;89.30;;;;;;4898654;29;20431;-73
2021/01/20 11:08:40;;;;;;;3.43;2.20;;;8.10;89.40;;;;;;4897645;29;20749;-72
2021/01/20 11:11:06;;;;;;;3.43;2.13;;;8.10;89.40;;;;;;4898240;29;20471;-73
2021/01/20 11:13:33;;;;;;;2.63;2.23;;;8.10;89.40;;;;;;4899742;29;20245;-74
2021/01/20 11:15:58;;;;;;;2.87;2.20;;;8.10;89.10;;;;;;4898371;29;20424;-73
2021/01/20 11:18:25;;;;;;;4.33;2.20;;;8.10;89.10;;;;;;4898471;29;20426;-73
2021/01/20 11:20:51;;;;;;;3.23;2.53;;;8.10;89.30;;;;;;4898027;29;20213;-72
2021/01/20 11:23:17;;;;;;;3.10;2.47;;;8.20;89.70;;;;;;4898295;29;20569;-73
2021/01/20 11:25:47;;;;;;;2.73;2.00;;;8.20;89.40;;;;;;4898192;29;20501;-73
2021/01/20 11:28:14;;;;;;;2.60;1.93;;;8.20;89.60;;;;;;4898307;29;20462;-72
2021/01/20 11:30:41;;;;;;;2.77;2.20;;;8.20;89.50;;;;;;4897986;29;20445;-73
2021/01/20 11:33:07;;;;;;;3.30;2.30;;;8.10;89.40;;;;;;4898114;29;20951;-73
2021/01/20 11:35:33;;;;;;;2.60;2.23;;;8.10;89.20;;;;;;4898237;29;20429;-73
2021/01/20 11:37:59;;;;;;;3.40;2.47;;;8.10;89.30;;;;;;4898098;29;20421;-73
2021/01/20 11:40:30;;;;;;;3.60;2.40;;;8.20;89.60;;;;;;4897766;29;20509;-73
2021/01/20 11:42:57;;;;;;;3.57;1.93;;;8.20;89.30;;;;;;4899318;29;20413;-73
2021/01/20 11:45:26;;;;;;;3.70;2.17;;;8.20;89.70;;;;;;4897923;29;20428;-73
2021/01/20 11:47:52;;;;;;;2.63;2.27;;;8.20;89.70;;;;;;4898031;29;20428;-73
2021/01/20 11:50:18;;;;;;;3.10;2.20;;;8.20;89.70;;;;;;4897450;29;20477;-72
2021/01/20 11:52:45;;;;;;;3.57;2.43;;;8.20;89.70;;;;;;4897920;29;20177;-74
2021/01/20 11:55:12;;;;;;;2.33;2.13;;;8.20;89.70;;;;;;4898481;29;20517;-73
2021/01/20 11:57:38;;;;;;;4.80;2.00;;;8.20;89.90;;;;;;4898257;29;20422;-74
2021/01/20 12:00:09;;;;;;;2.10;1.83;;;8.10;90.20;;;;;;4898163;29;20469;-72
2021/01/20 12:02:35;;;;;;;3.23;2.00;;;8.20;90.60;;;;;;4897770;29;20217;-73
2021/01/20 12:05:04;;;;;;;2.93;2.13;;;8.20;90.20;;;;;;4899756;29;20453;-73
2021/01/20 12:07:32;;;;;;;2.60;2.10;;;8.10;90.30;;;;;;4897979;29;20193;-73
2021/01/20 12:09:58;;;;;;;2.90;1.90;;;8.20;90.70;;;;;;4898071;29;20469;-73
2021/01/20 12:12:24;;;;;;;6.53;2.30;;;8.10;90.10;;;;;;4897442;29;20485;-73
2021/01/20 12:14:49;;;;;;;2.37;2.00;;;8.20;90.30;;;;;;4897838;29;20422;-73
2021/01/20 12:17:15;;;;;;;1.97;1.83;;;8.20;89.80;;;;;;4898262;29;20663;-73
2021/01/20 12:19:41;;;;;;;2.40;2.03;;;8.20;90.00;;;;;;4897742;29;20185;-73
2021/01/20 12:22:07;;;;;;;2.47;2.13;;;8.20;90.40;;;;;;4897669;29;20209;-73
2021/01/20 12:24:34;;;;;;;2.77;1.87;;;8.20;90.10;;;;;;4897353;29;20432;-73
2021/01/20 12:27:03;;;;;;;1.97;1.90;;;8.30;89.80;;;;;;4898637;29;20557;-72
2021/01/20 12:29:29;;;;;;;3.30;2.30;;;8.30;89.50;;;;;;4897181;29;20473;-73
2021/01/20 12:31:56;;;;;;;2.50;2.10;;;8.40;89.70;;;;;;4897119;29;20448;-73
2021/01/20 12:34:22;;;;;;;3.20;1.87;;;8.40;89.40;;;;;;4897938;29;20924;-73
2021/01/20 12:36:49;;;;;;;4.03;2.03;;;8.40;89.40;;;;;;4897676;29;20421;-73
2021/01/20 12:39:16;;;;;;;2.60;2.00;;;8.40;89.30;;;;;;4898000;29;20208;-73
2021/01/20 12:41:43;;;;;;;6.83;2.33;;;8.50;89.30;;;;;;4898426;29;20524;-74
2021/01/20 12:44:09;;;;;;;4.40;2.40;;;8.50;89.40;;;;;;4899227;29;20445;-72
2021/01/20 12:46:37;;;;;;;3.20;2.20;;;8.50;89.30;;;;;;4898945;29;20430;-73
2021/01/20 12:49:03;;;;;;;4.23;2.30;;;8.50;89.40;;;;;;4898083;29;20468;-73
2021/01/20 12:51:30;;;;;;;2.70;2.00;;;8.50;89.30;;;;;;4897175;29;20453;-73
2021/01/20 12:53:56;;;;;;;2.77;2.50;;;8.50;89.40;;;;;;4897233;29;20185;-73
2021/01/20 12:56:22;;;;;;;2.77;2.07;;;8.50;89.40;;;;;;4897875;29;20440;-73
2021/01/20 12:58:47;;;;;;;2.70;2.23;;;8.60;88.90;;;;;;4896756;29;20270;-73
2021/01/20 13:01:13;;;;;;;2.87;2.40;;;8.60;89.40;;;;;;4896323;29;20224;-73
2021/01/20 13:03:39;;;;;;;5.00;2.10;;;8.60;89.20;;;;;;4896815;29;20189;-73
2021/01/20 13:06:06;;;;;;;2.80;2.00;;;8.60;89.30;;;;;;4896747;29;20181;-73
2021/01/20 13:08:32;;;;;;;6.47;2.20;;;8.60;89.00;;;;;;4897916;29;20674;-73
2021/01/20 13:10:57;;;;;;;2.87;2.00;;;8.70;89.40;;;;;;4896362;29;20445;-73
2021/01/20 13:13:24;;;;;;;3.83;2.33;;;8.70;89.10;;;;;;4896859;29;20554;-73
2021/01/20 13:15:51;;;;;;;2.87;2.23;;;8.70;89.30;;;;;;4898800;29;20177;-73
2021/01/20 13:18:18;;;;;;;2.73;2.30;;;8.80;88.60;;;;;;4896582;29;20465;-73
2021/01/20 13:20:43;;;;;;;4.13;2.40;;;8.80;88.70;;;;;;4896245;29;21036;-73
2021/01/20 13:23:09;;;;;;;3.67;2.30;;;8.90;88.50;;;;;;4896543;29;20513;-73
2021/01/20 13:25:35;;;;;;;4.37;2.20;;;8.90;88.40;;;;;;4896546;29;20272;-73
2021/01/20 13:28:00;;;;;;;4.17;2.30;;;9.00;88.50;;;;;;4896606;29;20189;-73
2021/01/20 13:30:26;;;;;;;2.73;2.17;;;9.00;89.00;;;;;;4896124;29;20299;-73
2021/01/20 13:32:52;;;;;;;3.63;2.30;;;9.10;88.60;;;;;;4898660;29;20181;-73
2021/01/20 13:35:18;;;;;;;4.13;2.27;;;9.10;88.90;;;;;;4901448;29;20477;-73
2021/01/20 13:37:43;;;;;;;2.10;2.00;;;9.20;88.90;;;;;;4901415;29;20659;-73
2021/01/20 13:40:10;;;;;;;3.20;2.40;;;9.40;88.60;;;;;;4900067;29;20539;-73
2021/01/20 13:42:36;;;;;;;3.20;2.40;;;9.50;88.70;;;;;;4899852;29;20296;-73
2021/01/20 13:45:02;;;;;;;5.17;2.60;;;9.50;89.00;;;;;;4899925;29;21034;-73
2021/01/20 13:47:28;;;;;;;3.93;2.20;;;9.60;89.30;;;;;;4900150;29;20216;-73
2021/01/20 13:49:53;;;;;;;2.90;2.20;;;9.60;88.20;;;;;;4901147;29;20469;-73
2021/01/20 13:52:19;;;;;;;3.83;2.20;;;9.70;87.80;;;;;;4901132;29;20217;-73
2021/01/20 13:54:45;;;;;;;2.90;2.10;;;9.70;88.20;;;;;;4899637;29;20552;-73
2021/01/20 13:57:11;;;;;;;7.10;2.30;;;9.70;87.80;;;;;;4899844;29;20290;-73
2021/01/20 13:59:37;;;;;;;5.73;3.20;;;9.70;87.70;;;;;;4900892;29;20715;-73
2021/01/20 14:02:04;;;;;;;2.90;2.10;;;9.80;87.70;;;;;;4899557;29;20982;-73
2021/01/20 14:04:32;;;;;;;3.60;2.10;;;9.80;87.40;;;;;;4899073;29;20436;-73
2021/01/20 14:07:01;;;;;;;2.60;2.23;;;9.90;87.20;;;;;;4899802;29;20539;-73
2021/01/20 14:09:27;;;;;;;3.33;2.30;;;10.10;86.40;;;;;;4899872;29;20505;-73
2021/01/20 14:11:54;;;;;;;3.73;2.17;;;10.40;85.70;;;;;;4899844;29;20471;-74
2021/01/20 14:14:21;;;;;;;4.53;2.40;;;10.60;84.70;;;;;;4900185;29;20429;-73
2021/01/20 14:16:48;;;;;;;5.90;2.57;;;10.70;84.40;;;;;;4900001;29;20424;-73
2021/01/20 14:19:14;;;;;;;3.13;2.20;;;10.80;84.80;;;;;;4899755;29;20552;-73
2021/01/20 14:21:39;;;;;;;3.73;2.27;;;10.80;83.90;;;;;;4899314;29;20453;-73
2021/01/20 14:24:06;;;;;;;2.50;2.20;;;10.70;83.80;;;;;;4899422;29;20189;-74
2021/01/20 14:26:32;;;;;;;5.73;2.77;;;10.20;84.50;;;;;;4898602;29;20273;-73
2021/01/20 14:28:58;;;;;;;3.33;2.53;;;9.90;85.30;;;;;;4900492;29;20475;-73
2021/01/20 14:31:24;;;;;;;3.43;2.53;;;9.70;86.00;;;;;;4900096;29;20987;-74
2021/01/20 14:33:50;;;;;;;3.27;2.40;;;9.50;86.40;;;;;;4899242;29;20497;-73
2021/01/20 14:36:17;;;;;;;3.23;2.30;;;9.40;86.70;;;;;;4899088;29;20528;-73
2021/01/20 14:38:43;;;;;;;3.00;2.13;;;9.40;86.60;;;;;;4899266;29;20425;-73
2021/01/20 14:41:11;;;;;;;4.33;2.70;;;9.30;86.70;;;;;;4899770;29;20933;-73
2021/01/20 14:43:43;;;;;;;7.00;3.20;;;9.20;87.20;;;;;;4898001;29;20465;-73
2021/01/20 14:46:09;;;;;;;3.43;2.70;;;9.10;87.40;;;;;;4898922;29;20938;-73
2021/01/20 14:48:35;;;;;;;5.57;1.93;;;9.00;87.30;;;;;;4898924;29;20469;-72
2021/01/20 14:51:02;;;;;;;2.67;2.33;;;9.00;87.60;;;;;;4898841;29;20956;-72
2021/01/20 14:53:29;;;;;;;4.97;2.43;;;8.90;87.80;;;;;;4899437;29;20197;-73
2021/01/20 14:55:55;;;;;;;5.83;2.73;;;8.90;88.00;;;;;;4900383;29;20425;-73
2021/01/20 14:58:20;;;;;;;4.10;2.67;;;8.80;88.20;;;;;;4898623;29;20417;-72
2021/01/20 15:00:46;;;;;;;2.40;2.00;;;8.80;88.20;;;;;;4898055;29;20507;-73
2021/01/20 15:03:13;;;;;;;3.40;2.33;;;8.80;88.50;;;;;;4899114;29;20280;-72
2021/01/20 15:05:40;;;;;;;3.43;2.53;;;8.80;88.20;;;;;;4899206;29;20858;-73
2021/01/20 15:08:06;;;;;;;3.17;2.43;;;8.80;88.50;;;;;;4900278;29;20421;-73
2021/01/20 15:10:32;;;;;;;4.90;2.40;;;8.80;88.60;;;;;;4898340;29;20944;-72
2021/01/20 15:12:58;;;;;;;2.50;2.10;;;8.70;88.60;;;;;;4899634;29;20413;-72
2021/01/20 15:15:24;;;;;;;6.00;2.30;;;8.70;88.80;;;;;;4898904;29;20440;-72
2021/01/20 15:17:49;;;;;;;4.47;2.57;;;8.60;89.00;;;;;;4887253;29;20277;-73
2021/01/20 15:20:16;;;;;;;4.27;2.33;;;8.60;89.30;;;;;;4899327;29;20538;-72
2021/01/20 15:22:42;;;;;;;3.50;2.13;;;8.50;89.30;;;;;;4898062;29;20177;-73
2021/01/20 15:25:08;;;;;;;2.90;2.30;;;8.40;89.60;;;;;;4898310;29;20433;-75
2021/01/20 15:27:36;;;;;;;2.87;2.30;;;8.40;89.70;;;;;;4899199;29;20430;-72
2021/01/20 15:30:03;;;;;;;2.57;1.90;;;8.40;89.70;;;;;;4897609;29;20461;-71
2021/01/20 15:32:29;;;;;;;5.17;3.10;;;8.40;89.70;;;;;;4898162;29;20456;-72
2021/01/20 15:34:54;;;;;;;3.23;1.87;;;8.30;89.60;;;;;;4898969;29;20417;-71
2021/01/20 15:37:22;;;;;;;3.90;2.70;;;8.30;89.70;;;;;;4899210;29;20711;-72
2021/01/20 15:39:49;;;;;;;3.90;2.50;;;8.30;89.70;;;;;;4897930;29;20189;-73
2021/01/20 15:42:15;;;;;;;4.20;2.60;;;8.30;89.60;;;;;;4897918;29;20473;-74
2021/01/20 15:44:41;;;;;;;6.17;2.80;;;8.30;89.70;;;;;;4899564;29;20422;-73
2021/01/20 15:47:07;;;;;;;4.60;3.00;;;8.20;89.90;;;;;;4899011;29;20537;-73
2021/01/20 15:49:33;;;;;;;3.50;2.60;;;8.30;89.80;;;;;;4898295;29;20536;-74
2021/01/20 15:51:59;;;;;;;2.50;2.20;;;8.30;89.70;;;;;;4897287;29;20449;-74
2021/01/20 15:54:24;;;;;;;3.43;2.33;;;8.30;89.80;;;;;;4897423;29;20280;-73
2021/01/20 15:56:50;;;;;;;4.50;2.50;;;8.30;89.90;;;;;;4898106;29;20639;-73
2021/01/20 15:59:18;;;;;;;4.67;2.83;;;8.30;90.10;;;;;;4898702;29;20272;-73
2021/01/20 16:01:44;;;;;;;3.73;2.40;;;8.20;90.20;;;;;;4897046;29;20220;-73
2021/01/20 16:04:12;;;;;;;3.70;2.70;;;8.20;90.30;;;;;;4897297;29;20517;-74
2021/01/20 16:06:46;;;;;;;6.80;2.67;;;8.20;90.60;;;;;;4897538;29;20438;-74
2021/01/20 16:09:16;;;;;;;3.47;2.40;;;8.20;90.70;;;;;;4897609;29;20897;-74
2021/01/20 16:11:45;;;;;;;4.33;2.30;;;8.20;90.60;;;;;;4898174;29;20440;-74
2021/01/20 16:14:12;;;;;;;4.40;2.17;;;8.20;90.50;;;;;;4897446;29;20425;-73
2021/01/20 16:16:38;;;;;;;4.67;2.37;;;8.20;90.70;;;;;;4898652;29;20422;-74
2021/01/20 16:19:05;;;;;;;5.50;2.30;;;8.20;90.60;;;;;;4897018;29;20951;-74
2021/01/20 16:21:30;;;;;;;6.03;2.50;;;8.20;90.70;;;;;;4898279;29;20430;-74
2021/01/20 16:23:56;;;;;;;4.13;3.20;;;8.20;90.80;;;;;;4898030;29;20473;-74
2021/01/20 16:26:22;;;;;;;2.70;2.60;;;8.20;90.70;;;;;;4897129;29;20565;-74
2021/01/20 16:28:48;;;;;;;5.70;2.87;;;8.20;91.00;;;;;;4896973;29;20453;-74
2021/01/20 16:31:18;;;;;;;9.13;3.90;;;8.20;91.00;;;;;;4898445;29;20259;-73
2021/01/20 16:33:43;;;;;;;10.93;5.03;;;8.10;91.30;;;;;;4896956;29;20208;-73
2021/01/20 16:36:09;;;;;;;9.20;3.43;;;8.10;91.40;;;;;;4896973;29;20487;-74
2021/01/20 16:38:35;;;;;;;4.60;2.90;;;8.10;91.40;;;;;;4897020;29;20328;-74
2021/01/20 16:41:01;;;;;;;4.77;2.60;;;8.10;91.60;;;;;;4896560;29;20500;-73
2021/01/20 16:43:27;;;;;;;7.43;2.50;;;8.10;91.40;;;;;;4897984;29;20630;-73
2021/01/20 16:45:53;;;;;;;4.47;2.90;;;8.10;91.40;;;;;;4897999;29;20908;-73
2021/01/20 16:48:19;;;;;;;9.27;3.40;;;8.20;91.40;;;;;;4897849;29;20260;-74
2021/01/20 16:50:44;;;;;;;5.43;3.20;;;8.10;91.60;;;;;;4896590;29;20208;-74
2021/01/20 16:53:10;;;;;;;11.30;4.07;;;8.10;91.60;;;;;;4896426;29;20189;-74
2021/01/20 16:55:36;;;;;;;10.80;4.57;;;8.10;91.70;;;;;;4896783;29;20224;-73
2021/01/20 16:58:01;;;;;;;4.93;3.00;;;8.10;91.80;;;;;;4896748;29;20188;-74
2021/01/20 17:00:27;;;;;;;8.50;3.77;;;8.10;91.80;;;;;;4897833;29;20185;-74
2021/01/20 17:02:53;;;;;;;2.80;2.50;;;8.00;92.10;;;;;;4896508;29;20668;-73
2021/01/20 17:05:18;;;;;;;2.40;2.30;;;8.00;92.20;;;;;;4898035;29;20652;-73
2021/01/20 17:07:44;;;;;;;4.10;3.13;;;7.90;92.40;;;;;;4897147;29;20201;-74
2021/01/20 17:10:11;;;;;;;4.83;2.70;;;7.90;92.50;;;;;;4898753;29;20306;-74
2021/01/20 17:12:37;;;;;;;4.83;2.70;;;7.90;92.70;;;;;;4905532;29;20216;-76
2021/01/20 17:15:03;;;;;;;7.40;3.60;;;7.80;92.90;;;;;;4898619;29;20426;-74
2021/01/20 17:17:30;;;;;;;24.87;11.20;;;7.80;93.10;;;;;;4896917;29;20212;-74
2021/01/20 17:19:56;;;;;;;14.90;7.43;;;7.80;93.20;;;;;;4898007;29;20581;-75
2021/01/20 17:22:22;;;;;;;18.47;10.23;;;7.70;93.40;;;;;;4897154;29;20804;-74
2021/01/20 17:24:50;;;;;;;7.80;4.27;;;7.70;93.50;;;;;;4897214;29;20429;-77
2021/01/20 17:27:15;;;;;;;5.10;2.90;;;7.70;93.60;;;;;;4896395;29;20421;-74
2021/01/20 17:29:43;;;;;;;4.60;3.30;;;7.70;93.60;;;;;;4895468;29;20457;-74
2021/01/20 17:32:08;;;;;;;5.57;3.33;;;7.60;93.90;;;;;;4895785;29;20193;-74
2021/01/20 17:34:34;;;;;;;5.90;3.50;;;7.60;93.90;;;;;;4896209;29;20509;-74
2021/01/20 17:37:01;;;;;;;5.60;3.03;;;7.60;93.90;;;;;;4896172;29;20625;-73
2021/01/20 17:39:27;;;;;;;6.70;3.20;;;7.60;93.70;;;;;;4894091;29;20196;-75
2021/01/20 17:41:53;;;;;;;4.13;2.90;;;7.60;93.70;;;;;;4896892;29;20446;-73
2021/01/20 17:44:19;;;;;;;5.43;3.00;;;7.60;93.50;;;;;;4896173;29;20182;-73
2021/01/20 17:46:52;;;;;;;3.90;2.80;;;7.60;93.70;;;;;;4896440;29;20427;-75
2021/01/20 17:49:18;;;;;;;4.50;2.80;;;7.70;93.50;;;;;;4897359;29;20216;-73
2021/01/20 17:51:44;;;;;;;3.93;3.03;;;7.60;93.60;;;;;;4895756;29;20441;-73
2021/01/20 17:54:10;;;;;;;5.13;2.80;;;7.70;93.40;;;;;;4895293;29;20940;-73
2021/01/20 17:56:36;;;;;;;5.50;3.10;;;7.70;93.30;;;;;;4896008;29;20185;-73
2021/01/20 17:59:02;;;;;;;4.30;2.57;;;7.70;93.10;;;;;;4896522;29;20185;-73
2021/01/20 18:01:28;;;;;;;7.53;4.10;;;7.70;93.40;;;;;;4895520;29;20463;-73
2021/01/20 18:03:54;;;;;;;6.70;3.53;;;7.70;93.10;;;;;;4896305;29;20659;-73
2021/01/20 18:06:20;;;;;;;24.90;9.83;;;7.70;93.20;;;;;;4895660;29;20444;-73
2021/01/20 18:08:46;;;;;;;6.10;3.17;;;7.70;93.20;;;;;;4895600;29;20225;-73
2021/01/20 18:11:12;;;;;;;7.30;3.43;;;7.60;93.30;;;;;;4896922;29;20444;-72
2021/01/20 18:13:38;;;;;;;5.33;3.43;;;7.70;93.20;;;;;;4897322;29;20704;-73
2021/01/20 18:16:04;;;;;;;5.60;2.80;;;7.60;93.40;;;;;;4896602;29;20422;-73
2021/01/20 18:18:29;;;;;;;5.70;3.40;;;7.60;93.40;;;;;;4897401;29;20177;-73
2021/01/20 18:20:55;;;;;;;10.73;4.97;;;7.60;93.50;;;;;;4895969;29;20548;-73
2021/01/20 18:23:21;;;;;;;11.57;4.27;;;7.50;93.70;;;;;;4891886;29;20671;-73
2021/01/20 18:25:46;;;;;;;22.33;7.30;;;7.50;94.00;;;;;;4898484;29;20268;-73
2021/01/20 18:28:12;;;;;;;8.87;5.10;;;7.50;94.00;;;;;;4900133;29;20193;-73
2021/01/20 18:30:38;;;;;;;10.50;5.20;;;7.50;94.10;;;;;;4900170;29;20217;-74
2021/01/20 18:33:04;;;;;;;9.30;5.40;;;7.50;94.20;;;;;;4899244;29;20719;-73
2021/01/20 18:35:29;;;;;;;5.73;4.40;;;7.50;94.30;;;;;;4899090;29;20177;-73
2021/01/20 18:37:57;;;;;;;6.83;4.07;;;7.40;94.60;;;;;;4900394;29;20181;-73
2021/01/20 18:40:24;;;;;;;5.43;3.00;;;7.40;94.60;;;;;;4899051;29;20189;-73
2021/01/20 18:42:50;;;;;;;4.73;2.93;;;7.40;94.60;;;;;;4900411;29;20557;-73
2021/01/20 18:45:16;;;;;;;4.60;3.30;;;7.40;94.60;;;;;;4898806;29;20440;-72
2021/01/20 18:47:41;;;;;;;6.43;3.10;;;7.40;94.60;;;;;;4899821;29;20437;-73
2021/01/20 18:50:08;;;;;;;5.57;3.30;;;7.40;94.70;;;;;;4899925;29;20214;-72
2021/01/20 18:52:34;;;;;;;5.27;2.97;;;7.40;94.60;;;;;;4898585;29;20197;-73
2021/01/20 18:55:00;;;;;;;7.47;3.87;;;7.40;94.60;;;;;;4900047;29;20418;-72
2021/01/20 18:57:26;;;;;;;29.07;11.27;;;7.50;94.50;;;;;;4898742;29;20241;-72
2021/01/20 18:59:52;;;;;;;4.73;3.73;;;7.50;94.40;;;;;;4898640;29;20185;-73